Time;durP1;ratioP1;P1;durP2;ratioP2;P2;SDS_P1;SDS_P2;PMS_P1;PMS_P2;Temp;Humidity;BMP_temperature;BMP_pressure;BME280_temperature;BME280_humidity;BME280_pressure;Samples;Min_cycle;Max_cycle;Signal;HPM_P1;HPM_P2
2022/11/30 00:00:28;;;;;;;144.90;15.07;;;;;;;;;;6309595;22;20015;-93
2022/11/30 00:02:55;;;;;;;108.88;9.80;;;;;;;;;;6334015;22;20509;-93
2022/11/30 00:05:21;;;;;;;63.25;10.18;;;;;;;;;;6308242;22;20127;-93
2022/11/30 00:07:48;;;;;;;45.60;8.30;;;;;;;;;;6334897;22;19995;-94
2022/11/30 00:10:13;;;;;;;65.72;9.32;;;;;;;;;;6335137;22;20479;-92
2022/11/30 00:12:42;;;;;;;63.83;10.13;;;;;;;;;;6335124;22;20003;-95
2022/11/30 00:15:11;;;;;;;34.67;6.95;;;;;;;;;;6306849;22;20689;-94
2022/11/30 00:17:37;;;;;;;34.00;6.75;;;;;;;;;;6305432;22;20003;-92
2022/11/30 00:20:02;;;;;;;72.78;9.02;;;;;;;;;;6333649;22;20085;-93
2022/11/30 00:22:29;;;;;;;112.32;11.30;;;;;;;;;;6306923;22;20380;-93
2022/11/30 00:24:58;;;;;;;138.57;12.60;;;;;;;;;;6305820;22;20034;-94
2022/11/30 00:27:23;;;;;;;121.70;13.88;;;;;;;;;;6307375;22;20014;-94
2022/11/30 00:29:49;;;;;;;90.00;11.00;;;;;;;;;;6308262;22;20006;-94
2022/11/30 00:32:14;;;;;;;66.10;9.52;;;;;;;;;;6307590;22;20002;-95
2022/11/30 00:34:39;;;;;;;51.80;9.43;;;;;;;;;;6335073;22;20025;-94
2022/11/30 00:37:05;;;;;;;36.60;7.45;;;;;;;;;;6308487;22;20013;-94
2022/11/30 00:39:32;;;;;;;28.63;6.80;;;;;;;;;;6332969;22;20002;-92
2022/11/30 00:41:58;;;;;;;33.40;6.75;;;;;;;;;;6306555;22;20085;-91
2022/11/30 00:44:23;;;;;;;29.23;6.10;;;;;;;;;;6305477;22;20050;-91
2022/11/30 00:46:49;;;;;;;35.58;6.95;;;;;;;;;;6331752;22;19995;-94
2022/11/30 00:49:15;;;;;;;26.85;6.50;;;;;;;;;;6331391;22;20013;-93
2022/11/30 00:51:40;;;;;;;31.05;8.02;;;;;;;;;;6306623;22;20026;-93
2022/11/30 00:54:05;;;;;;;37.85;6.50;;;;;;;;;;6333561;22;20056;-93
2022/11/30 00:56:31;;;;;;;28.63;5.55;;;;;;;;;;6333991;22;20085;-92
2022/11/30 00:58:58;;;;;;;31.95;7.13;;;;;;;;;;6334698;22;20006;-93
2022/11/30 01:01:23;;;;;;;28.65;6.70;;;;;;;;;;6305312;22;20011;-92
2022/11/30 01:03:49;;;;;;;34.13;6.35;;;;;;;;;;6306333;22;20052;-92
2022/11/30 01:06:14;;;;;;;49.92;8.75;;;;;;;;;;6334536;22;20003;-92
2022/11/30 01:08:39;;;;;;;35.55;7.00;;;;;;;;;;6337044;22;20604;-94
2022/11/30 01:11:07;;;;;;;37.78;6.93;;;;;;;;;;6354466;22;19983;-94
2022/11/30 01:13:32;;;;;;;32.60;7.05;;;;;;;;;;6332382;22;20006;-93
2022/11/30 01:15:57;;;;;;;34.20;6.97;;;;;;;;;;6312195;22;20011;-93
2022/11/30 01:18:23;;;;;;;40.35;7.07;;;;;;;;;;6318021;22;20011;-94
2022/11/30 01:20:48;;;;;;;31.67;7.43;;;;;;;;;;6328086;22;20010;-93
2022/11/30 01:23:14;;;;;;;33.40;7.00;;;;;;;;;;6332820;22;20583;-94
2022/11/30 01:25:40;;;;;;;51.88;6.90;;;;;;;;;;6348961;22;20033;-93
2022/11/30 01:28:05;;;;;;;52.20;7.85;;;;;;;;;;6308143;22;20011;-94
2022/11/30 01:30:31;;;;;;;50.65;7.05;;;;;;;;;;6333743;22;20078;-94
2022/11/30 01:33:00;;;;;;;61.30;6.97;;;;;;;;;;6306489;22;20011;-94
2022/11/30 01:35:25;;;;;;;34.45;6.57;;;;;;;;;;6306436;22;19999;-93
2022/11/30 01:37:52;;;;;;;40.88;6.30;;;;;;;;;;6334330;22;20048;-93
2022/11/30 01:40:18;;;;;;;35.80;7.45;;;;;;;;;;6307123;22;20003;-94
2022/11/30 01:42:46;;;;;;;37.63;7.80;;;;;;;;;;6333985;22;20015;-93
2022/11/30 01:45:13;;;;;;;44.80;6.50;;;;;;;;;;6333965;22;20010;-92
2022/11/30 01:47:40;;;;;;;29.77;5.22;;;;;;;;;;6306231;22;20052;-93
2022/11/30 01:50:11;;;;;;;37.83;6.07;;;;;;;;;;6302497;22;20108;-92
2022/11/30 01:52:42;;;;;;;44.45;6.53;;;;;;;;;;6305494;22;20077;-93
2022/11/30 01:55:10;;;;;;;35.97;6.38;;;;;;;;;;6306863;22;20709;-92
2022/11/30 01:57:47;;;;;;;31.25;6.25;;;;;;;;;;6307057;22;20015;-94
2022/11/30 02:00:13;;;;;;;35.97;6.47;;;;;;;;;;6306271;22;20049;-93
2022/11/30 02:02:52;;;;;;;32.45;5.95;;;;;;;;;;6334465;22;20011;-92
2022/11/30 02:05:18;;;;;;;33.38;6.50;;;;;;;;;;6305477;22;20049;-92
2022/11/30 02:07:44;;;;;;;27.95;5.57;;;;;;;;;;6333189;22;20013;-92
2022/11/30 02:10:14;;;;;;;36.83;6.53;;;;;;;;;;6306949;22;20003;-93
2022/11/30 02:12:59;;;;;;;36.78;5.82;;;;;;;;;;6333680;22;20006;-92
2022/11/30 02:15:26;;;;;;;38.38;6.32;;;;;;;;;;6332676;22;20007;-92
2022/11/30 02:18:04;;;;;;;61.15;6.90;;;;;;;;;;6306759;22;20098;-94
2022/11/30 02:20:29;;;;;;;66.00;9.65;;;;;;;;;;6331746;22;20040;-94
2022/11/30 02:22:58;;;;;;;60.65;7.85;;;;;;;;;;6305424;22;20006;-94
2022/11/30 02:25:23;;;;;;;39.10;6.35;;;;;;;;;;6305708;22;20068;-94
2022/11/30 02:28:04;;;;;;;61.30;7.78;;;;;;;;;;6304932;22;20007;-94
2022/11/30 02:30:30;;;;;;;49.70;7.85;;;;;;;;;;6304986;22;20014;-93
2022/11/30 02:33:22;;;;;;;45.05;7.07;;;;;;;;;;6305478;22;20018;-95
2022/11/30 02:35:49;;;;;;;62.05;6.90;;;;;;;;;;6324820;22;20007;-94
2022/11/30 02:38:17;;;;;;;44.15;6.72;;;;;;;;;;6306273;22;20079;-93
2022/11/30 02:40:43;;;;;;;80.00;8.82;;;;;;;;;;6306034;22;20733;-94
2022/11/30 02:43:08;;;;;;;80.97;9.52;;;;;;;;;;6306312;22;20010;-93
2022/11/30 02:45:54;;;;;;;91.57;9.02;;;;;;;;;;6306421;22;20125;-93
2022/11/30 02:48:25;;;;;;;70.82;8.65;;;;;;;;;;6328956;22;20442;-93
2022/11/30 02:50:53;;;;;;;88.07;10.80;;;;;;;;;;6304521;22;20082;-93
2022/11/30 02:53:18;;;;;;;78.50;8.60;;;;;;;;;;6303394;22;20768;-93
2022/11/30 02:55:44;;;;;;;69.85;7.63;;;;;;;;;;6305216;22;20007;-92
2022/11/30 02:58:10;;;;;;;67.20;9.10;;;;;;;;;;6302574;22;20011;-92
2022/11/30 03:03:10;;;;;;;48.80;7.00;;;;;;;;;;6282265;22;20443;-93
2022/11/30 03:05:35;;;;;;;34.25;6.25;;;;;;;;;;6299656;22;20006;-93
2022/11/30 03:08:01;;;;;;;65.75;7.50;;;;;;;;;;6299936;22;20003;-93
2022/11/30 03:10:26;;;;;;;28.60;6.82;;;;;;;;;;6330105;22;20043;-92
2022/11/30 03:12:51;;;;;;;39.20;5.50;;;;;;;;;;6303516;22;20025;-95
2022/11/30 03:15:16;;;;;;;30.92;5.65;;;;;;;;;;6303333;22;20015;-92
2022/11/30 03:17:42;;;;;;;37.90;5.97;;;;;;;;;;6302191;22;20007;-92
2022/11/30 03:20:07;;;;;;;32.67;5.95;;;;;;;;;;6330471;22;20220;-94
2022/11/30 03:22:32;;;;;;;71.82;7.95;;;;;;;;;;6301505;22;20088;-93
2022/11/30 03:24:58;;;;;;;75.15;8.20;;;;;;;;;;6299983;22;20717;-94
2022/11/30 03:27:23;;;;;;;60.28;7.60;;;;;;;;;;6301879;22;20341;-94
2022/11/30 03:29:48;;;;;;;62.53;7.45;;;;;;;;;;6300353;22;20006;-95
2022/11/30 03:32:13;;;;;;;41.80;5.35;;;;;;;;;;6303980;22;20010;-94
2022/11/30 03:34:39;;;;;;;48.50;5.80;;;;;;;;;;6303037;22;20331;-94
2022/11/30 03:37:04;;;;;;;65.85;7.22;;;;;;;;;;6333567;22;20011;-94
2022/11/30 03:39:30;;;;;;;39.45;7.10;;;;;;;;;;6303146;22;20380;-95
2022/11/30 03:41:55;;;;;;;26.75;5.60;;;;;;;;;;6303121;22;20018;-94
2022/11/30 03:44:21;;;;;;;54.47;7.50;;;;;;;;;;6303236;22;20695;-95
2022/11/30 03:46:46;;;;;;;32.75;6.22;;;;;;;;;;6303691;22;20029;-95
2022/11/30 03:49:11;;;;;;;42.53;6.40;;;;;;;;;;6303220;22;20007;-93
2022/11/30 03:51:36;;;;;;;28.13;5.13;;;;;;;;;;6331532;22;20836;-92
2022/11/30 03:54:02;;;;;;;28.65;5.20;;;;;;;;;;6302546;22;20648;-94
2022/11/30 03:56:27;;;;;;;22.08;4.88;;;;;;;;;;6328678;22;20313;-95
2022/11/30 03:58:53;;;;;;;16.98;4.47;;;;;;;;;;6302692;22;20086;-94
2022/11/30 04:01:21;;;;;;;23.05;4.50;;;;;;;;;;6301785;22;20015;-93
2022/11/30 04:03:46;;;;;;;19.27;4.55;;;;;;;;;;6302129;22;20034;-93
2022/11/30 04:06:12;;;;;;;39.85;5.40;;;;;;;;;;6303441;22;20222;-94
2022/11/30 04:08:37;;;;;;;30.80;5.28;;;;;;;;;;6331207;22;20420;-94
2022/11/30 04:11:03;;;;;;;46.22;6.70;;;;;;;;;;6302322;22;20041;-94
2022/11/30 04:13:29;;;;;;;53.17;6.53;;;;;;;;;;6303618;22;20018;-94
2022/11/30 04:15:55;;;;;;;62.47;5.97;;;;;;;;;;6304334;22;20085;-94
2022/11/30 04:18:21;;;;;;;70.38;6.43;;;;;;;;;;6332107;22;20748;-93
2022/11/30 04:20:49;;;;;;;62.38;6.35;;;;;;;;;;6301404;22;20439;-93
2022/11/30 04:23:14;;;;;;;121.57;8.75;;;;;;;;;;6328923;22;20128;-94
2022/11/30 04:25:40;;;;;;;49.37;5.87;;;;;;;;;;6328185;22;20023;-94
2022/11/30 04:28:05;;;;;;;31.45;4.57;;;;;;;;;;6299818;22;21100;-93
2022/11/30 04:30:31;;;;;;;23.75;4.45;;;;;;;;;;6299426;22;20009;-93
2022/11/30 04:32:57;;;;;;;31.15;4.85;;;;;;;;;;6328685;22;20471;-94
2022/11/30 04:35:25;;;;;;;22.17;4.38;;;;;;;;;;6301699;22;19999;-94
2022/11/30 04:37:50;;;;;;;14.63;3.42;;;;;;;;;;6300826;22;20776;-93
2022/11/30 04:40:16;;;;;;;15.93;3.65;;;;;;;;;;6329048;22;20003;-93
2022/11/30 04:42:41;;;;;;;49.13;5.65;;;;;;;;;;6301451;22;20007;-92
2022/11/30 04:45:06;;;;;;;45.03;5.75;;;;;;;;;;6302142;22;20040;-93
2022/11/30 04:47:32;;;;;;;41.60;4.45;;;;;;;;;;6302879;22;20479;-93
2022/11/30 04:49:57;;;;;;;84.03;7.90;;;;;;;;;;6331400;22;20678;-94
2022/11/30 04:52:22;;;;;;;42.33;5.73;;;;;;;;;;6302718;22;20056;-93
2022/11/30 04:54:47;;;;;;;19.83;5.35;;;;;;;;;;6329983;22;20219;-94
2022/11/30 04:57:13;;;;;;;18.67;3.87;;;;;;;;;;6302991;22;20041;-94
2022/11/30 04:59:38;;;;;;;29.42;4.78;;;;;;;;;;6302597;22;20231;-94
2022/11/30 05:02:03;;;;;;;80.15;8.63;;;;;;;;;;6302644;22;20037;-94
2022/11/30 05:04:29;;;;;;;45.70;6.05;;;;;;;;;;6332041;22;20471;-94
2022/11/30 05:06:54;;;;;;;22.25;5.15;;;;;;;;;;6303300;22;20009;-93
2022/11/30 05:09:19;;;;;;;45.43;7.73;;;;;;;;;;6305012;22;20436;-92
2022/11/30 05:11:45;;;;;;;35.77;5.50;;;;;;;;;;6298781;22;20567;-94
2022/11/30 05:14:11;;;;;;;40.92;5.20;;;;;;;;;;6330398;22;20216;-93
2022/11/30 05:16:36;;;;;;;43.00;5.00;;;;;;;;;;6329425;22;20106;-93
2022/11/30 05:19:02;;;;;;;33.22;5.25;;;;;;;;;;6330404;22;20049;-94
2022/11/30 05:21:27;;;;;;;43.40;4.97;;;;;;;;;;6303888;22;20443;-94
2022/11/30 05:23:55;;;;;;;23.93;4.33;;;;;;;;;;6302700;22;20796;-94
2022/11/30 05:26:20;;;;;;;13.30;3.13;;;;;;;;;;6302884;22;20627;-94
2022/11/30 05:28:45;;;;;;;15.95;3.38;;;;;;;;;;6303878;22;20078;-94
2022/11/30 05:31:11;;;;;;;15.20;3.40;;;;;;;;;;6303489;22;20008;-93
2022/11/30 05:33:36;;;;;;;18.98;3.42;;;;;;;;;;6302122;22;20247;-94
2022/11/30 05:36:01;;;;;;;16.60;2.83;;;;;;;;;;6329558;22;20455;-94
2022/11/30 05:38:26;;;;;;;25.63;4.60;;;;;;;;;;6304055;22;19999;-93
2022/11/30 05:40:58;;;;;;;28.35;3.83;;;;;;;;;;6301470;22;20010;-92
2022/11/30 05:43:24;;;;;;;38.67;4.93;;;;;;;;;;6300989;22;20007;-93
2022/11/30 05:45:49;;;;;;;27.17;3.70;;;;;;;;;;6303391;22;20359;-93
2022/11/30 05:48:14;;;;;;;29.05;4.28;;;;;;;;;;6330070;22;20037;-93
2022/11/30 05:50:39;;;;;;;24.67;3.28;;;;;;;;;;6301950;22;20015;-93
2022/11/30 05:53:04;;;;;;;32.33;4.10;;;;;;;;;;6330570;22;20037;-93
2022/11/30 05:55:31;;;;;;;33.07;3.80;;;;;;;;;;6331257;22;20211;-93
2022/11/30 05:57:56;;;;;;;23.83;2.90;;;;;;;;;;6301316;22;20224;-92
2022/11/30 06:00:22;;;;;;;25.77;3.50;;;;;;;;;;6302908;22;20663;-93
2022/11/30 06:02:47;;;;;;;40.17;5.05;;;;;;;;;;6301726;22;20519;-94
2022/11/30 06:05:12;;;;;;;97.45;7.70;;;;;;;;;;6303401;22;20009;-94
2022/11/30 06:07:38;;;;;;;89.80;8.20;;;;;;;;;;6331550;22;20010;-93
2022/11/30 06:10:04;;;;;;;108.38;9.85;;;;;;;;;;6304356;22;20482;-92
2022/11/30 06:12:29;;;;;;;77.55;6.05;;;;;;;;;;6301859;22;20006;-94
2022/11/30 06:14:54;;;;;;;437.58;30.65;;;;;;;;;;6303210;22;20430;-93
2022/11/30 06:20:22;;;;;;;145.23;12.93;;;;;;;;;;6329158;22;20029;-93
2022/11/30 06:22:47;;;;;;;161.48;13.68;;;;;;;;;;6303057;22;20006;-93
2022/11/30 06:25:13;;;;;;;173.32;14.68;;;;;;;;;;6302747;22;20017;-93
2022/11/30 06:27:39;;;;;;;164.65;12.45;;;;;;;;;;6302186;22;20073;-93
2022/11/30 06:30:04;;;;;;;119.03;9.85;;;;;;;;;;6330823;22;20081;-94
2022/11/30 06:32:30;;;;;;;145.93;11.85;;;;;;;;;;6301721;22;20385;-93
2022/11/30 06:34:55;;;;;;;94.47;8.43;;;;;;;;;;6328625;22;19998;-94
2022/11/30 06:37:20;;;;;;;153.02;11.68;;;;;;;;;;6301282;22;20318;-93
2022/11/30 06:39:46;;;;;;;213.48;16.48;;;;;;;;;;6301559;22;20011;-94
2022/11/30 06:42:11;;;;;;;270.25;18.73;;;;;;;;;;6300530;22;20644;-94
2022/11/30 06:44:36;;;;;;;169.88;12.80;;;;;;;;;;6300995;22;20011;-92
2022/11/30 06:47:01;;;;;;;154.90;10.73;;;;;;;;;;6301713;22;20362;-92
2022/11/30 06:49:27;;;;;;;101.33;8.27;;;;;;;;;;6300801;22;20238;-92
2022/11/30 06:51:52;;;;;;;151.18;12.60;;;;;;;;;;6328121;22;20281;-92
2022/11/30 06:54:17;;;;;;;154.35;13.57;;;;;;;;;;6300523;22;20015;-92
2022/11/30 06:56:42;;;;;;;134.52;12.02;;;;;;;;;;6301332;22;20167;-93
2022/11/30 06:59:08;;;;;;;89.23;8.80;;;;;;;;;;6301393;22;20159;-93
2022/11/30 07:01:34;;;;;;;89.85;9.18;;;;;;;;;;6304170;22;20280;-95
2022/11/30 07:03:59;;;;;;;123.03;9.68;;;;;;;;;;6304762;22;20015;-96
2022/11/30 07:06:25;;;;;;;157.93;13.95;;;;;;;;;;6307969;22;20006;-96
2022/11/30 07:08:53;;;;;;;51.73;5.70;;;;;;;;;;6304658;22;20010;-96
2022/11/30 07:11:18;;;;;;;44.53;5.72;;;;;;;;;;6332827;22;20222;-96
2022/11/30 07:13:44;;;;;;;57.72;8.02;;;;;;;;;;6333472;22;20042;-94
2022/11/30 07:16:10;;;;;;;43.03;5.15;;;;;;;;;;6307083;22;20018;-95
2022/11/30 07:18:35;;;;;;;40.92;5.90;;;;;;;;;;6331939;22;20419;-95
2022/11/30 07:21:01;;;;;;;27.13;5.00;;;;;;;;;;6306629;22;20007;-95
2022/11/30 07:26:12;;;;;;;30.95;4.53;;;;;;;;;;6333447;22;20874;-96
2022/11/30 07:28:37;;;;;;;133.68;11.90;;;;;;;;;;6330313;22;20038;-96
2022/11/30 07:31:17;;;;;;;23.25;4.35;;;;;;;;;;6331310;22;20005;-94
2022/11/30 07:33:42;;;;;;;29.48;5.00;;;;;;;;;;6303273;22;20340;-94
2022/11/30 07:36:08;;;;;;;16.55;3.85;;;;;;;;;;6306145;22;20094;-94
2022/11/30 07:38:33;;;;;;;24.13;4.10;;;;;;;;;;6303362;22;20508;-94
2022/11/30 07:40:59;;;;;;;18.58;4.25;;;;;;;;;;6303936;22;20010;-94
2022/11/30 07:43:24;;;;;;;20.90;4.20;;;;;;;;;;6304071;22;20010;-91
2022/11/30 07:45:52;;;;;;;54.15;6.95;;;;;;;;;;6301526;22;20014;-96
2022/11/30 07:48:20;;;;;;;27.63;4.80;;;;;;;;;;6300943;22;20087;-96
2022/11/30 07:50:46;;;;;;;19.70;4.47;;;;;;;;;;6302874;22;20002;-92
2022/11/30 07:53:11;;;;;;;19.15;5.25;;;;;;;;;;6304058;22;19994;-93
2022/11/30 07:55:37;;;;;;;21.67;4.82;;;;;;;;;;6302624;22;20063;-93
2022/11/30 07:58:02;;;;;;;13.65;4.20;;;;;;;;;;6302080;22;20113;-96
2022/11/30 08:00:27;;;;;;;248.55;25.23;;;;;;;;;;6303373;22;20455;-93
2022/11/30 08:02:52;;;;;;;103.95;11.35;;;;;;;;;;6329286;22;20019;-92
2022/11/30 08:05:18;;;;;;;16.73;4.77;;;;;;;;;;6330820;22;20312;-92
2022/11/30 08:07:44;;;;;;;19.67;5.10;;;;;;;;;;6303866;22;20244;-91
2022/11/30 08:10:10;;;;;;;12.45;4.20;;;;;;;;;;6330648;22;20541;-91
2022/11/30 08:12:35;;;;;;;11.10;3.55;;;;;;;;;;6302958;22;20011;-92
2022/11/30 08:15:00;;;;;;;10.73;3.87;;;;;;;;;;6301869;22;20038;-92
2022/11/30 08:17:26;;;;;;;12.88;3.85;;;;;;;;;;6301017;22;20231;-91
2022/11/30 08:19:51;;;;;;;13.43;3.95;;;;;;;;;;6300235;22;20046;-92
2022/11/30 08:22:16;;;;;;;12.23;4.38;;;;;;;;;;6300239;22;20010;-92
2022/11/30 08:24:41;;;;;;;11.90;3.83;;;;;;;;;;6327894;22;20028;-91
2022/11/30 08:27:07;;;;;;;12.95;3.75;;;;;;;;;;6298290;22;20026;-92
2022/11/30 08:29:32;;;;;;;13.60;4.13;;;;;;;;;;6326192;22;20054;-92
2022/11/30 08:31:57;;;;;;;14.90;4.82;;;;;;;;;;6296121;22;20274;-92
2022/11/30 08:34:22;;;;;;;12.25;4.55;;;;;;;;;;6299893;22;20016;-91
2022/11/30 08:36:48;;;;;;;17.50;5.53;;;;;;;;;;6291035;22;20038;-92
2022/11/30 08:39:13;;;;;;;14.80;5.53;;;;;;;;;;6295205;22;20033;-92
2022/11/30 08:41:38;;;;;;;15.30;4.77;;;;;;;;;;6295521;22;20041;-94
2022/11/30 08:44:04;;;;;;;12.23;4.37;;;;;;;;;;6323147;22;20314;-92
2022/11/30 08:46:29;;;;;;;12.55;3.90;;;;;;;;;;6297829;22;20227;-92
2022/11/30 08:48:54;;;;;;;13.93;4.63;;;;;;;;;;6326460;22;20013;-91
2022/11/30 08:51:20;;;;;;;13.82;4.53;;;;;;;;;;6297855;22;20468;-91
2022/11/30 08:53:46;;;;;;;13.18;4.97;;;;;;;;;;6296588;22;20034;-92
2022/11/30 08:56:13;;;;;;;13.25;4.65;;;;;;;;;;6298815;22;20013;-90
2022/11/30 08:58:39;;;;;;;12.10;4.47;;;;;;;;;;6300599;22;20105;-92
2022/11/30 09:01:12;;;;;;;15.07;4.63;;;;;;;;;;6299004;22;20042;-93
2022/11/30 09:03:38;;;;;;;273.73;18.98;;;;;;;;;;6299358;22;20501;-93
2022/11/30 09:06:07;;;;;;;214.27;15.20;;;;;;;;;;6305234;22;20003;-94
2022/11/30 09:08:33;;;;;;;175.70;14.32;;;;;;;;;;6334766;22;20006;-94
2022/11/30 09:10:58;;;;;;;150.65;13.07;;;;;;;;;;6308314;22;20030;-93
2022/11/30 09:13:24;;;;;;;117.07;11.20;;;;;;;;;;6304665;22;20006;-95
2022/11/30 09:15:53;;;;;;;41.47;6.65;;;;;;;;;;6307420;22;20443;-95
2022/11/30 09:18:18;;;;;;;34.80;7.30;;;;;;;;;;6334480;22;20056;-95
2022/11/30 09:20:43;;;;;;;33.23;7.97;;;;;;;;;;6305249;22;20002;-94
2022/11/30 09:23:09;;;;;;;53.67;7.78;;;;;;;;;;6303087;22;20223;-95
2022/11/30 09:25:35;;;;;;;108.10;10.52;;;;;;;;;;6301215;22;20010;-91
2022/11/30 09:28:00;;;;;;;68.95;8.88;;;;;;;;;;6328043;22;20374;-92
2022/11/30 09:30:26;;;;;;;116.53;10.95;;;;;;;;;;6330203;22;20024;-96
2022/11/30 09:32:54;;;;;;;217.63;16.15;;;;;;;;;;6308094;22;20014;-94
2022/11/30 09:35:19;;;;;;;176.70;13.77;;;;;;;;;;6333632;22;20061;-94
2022/11/30 09:37:45;;;;;;;93.18;9.48;;;;;;;;;;6302345;22;20015;-94
2022/11/30 09:40:12;;;;;;;160.98;15.48;;;;;;;;;;6304652;22;20491;-93
2022/11/30 09:42:44;;;;;;;148.25;13.40;;;;;;;;;;6303954;22;20734;-93
2022/11/30 09:45:17;;;;;;;208.47;15.27;;;;;;;;;;6331763;22;20082;-92
2022/11/30 09:48:07;;;;;;;211.90;14.97;;;;;;;;;;6332212;22;20223;-94
2022/11/30 09:50:37;;;;;;;283.13;20.17;;;;;;;;;;6303875;22;20378;-93
2022/11/30 09:53:05;;;;;;;157.02;13.07;;;;;;;;;;6309167;22;20003;-96
2022/11/30 09:55:33;;;;;;;242.18;17.98;;;;;;;;;;6311315;22;20097;-96
2022/11/30 09:58:02;;;;;;;226.48;18.63;;;;;;;;;;6309734;22;20010;-96
2022/11/30 10:00:37;;;;;;;169.45;14.90;;;;;;;;;;6312847;22;20018;-96
2022/11/30 10:03:04;;;;;;;148.68;12.85;;;;;;;;;;6337141;22;20034;-93
2022/11/30 10:05:39;;;;;;;171.23;14.55;;;;;;;;;;6269901;22;20509;-92
2022/11/30 10:08:05;;;;;;;137.90;12.60;;;;;;;;;;6297040;22;20042;-91
2022/11/30 10:10:33;;;;;;;145.48;12.82;;;;;;;;;;6267534;22;20061;-92
2022/11/30 10:13:05;;;;;;;179.52;15.93;;;;;;;;;;6271643;22;20015;-92
2022/11/30 10:15:47;;;;;;;163.30;15.05;;;;;;;;;;6273133;22;20074;-95
2022/11/30 10:18:18;;;;;;;181.52;15.45;;;;;;;;;;6301209;22;20011;-94
2022/11/30 10:21:04;;;;;;;251.63;18.00;;;;;;;;;;6273375;22;20060;-95
2022/11/30 10:23:29;;;;;;;274.83;18.88;;;;;;;;;;6273085;22;20029;-93
2022/11/30 10:25:56;;;;;;;247.63;19.15;;;;;;;;;;6272572;22;20003;-96
2022/11/30 10:28:24;;;;;;;238.43;17.08;;;;;;;;;;6299424;22;20440;-96
2022/11/30 10:30:53;;;;;;;228.45;18.83;;;;;;;;;;6271871;22;20015;-95
2022/11/30 10:33:21;;;;;;;327.90;24.40;;;;;;;;;;6272694;22;20065;-95
2022/11/30 10:35:49;;;;;;;235.10;17.92;;;;;;;;;;6299164;22;19998;-94
2022/11/30 10:38:21;;;;;;;202.77;15.88;;;;;;;;;;6272489;22;20003;-95
2022/11/30 10:40:49;;;;;;;199.60;16.27;;;;;;;;;;6271753;22;20007;-95
2022/11/30 10:43:14;;;;;;;265.15;22.58;;;;;;;;;;6272965;22;19991;-95
2022/11/30 10:45:46;;;;;;;317.42;20.23;;;;;;;;;;6273732;22;20115;-94
2022/11/30 10:48:19;;;;;;;213.82;16.58;;;;;;;;;;6274796;22;20035;-96
2022/11/30 10:50:45;;;;;;;246.82;17.58;;;;;;;;;;6299964;22;20074;-94
2022/11/30 10:53:11;;;;;;;207.82;16.60;;;;;;;;;;6272459;22;20444;-94
2022/11/30 10:55:44;;;;;;;242.82;19.33;;;;;;;;;;6273258;22;20615;-94
2022/11/30 10:58:09;;;;;;;;;;;;;;;;;;6276210;22;20018;-95
2022/11/30 11:00:37;;;;;;;214.93;22.47;;;;;;;;;;6278413;22;19906;-95
2022/11/30 11:03:02;;;;;;;210.23;16.25;;;;;;;;;;6267264;22;20020;-95
2022/11/30 11:05:28;;;;;;;208.95;17.42;;;;;;;;;;6273949;22;20007;-96
2022/11/30 11:07:58;;;;;;;191.25;17.05;;;;;;;;;;6245835;22;20004;-95
2022/11/30 11:10:39;;;;;;;227.02;17.65;;;;;;;;;;6245205;22;20000;-96
2022/11/30 11:13:04;;;;;;;301.60;21.52;;;;;;;;;;6274054;22;20804;-95
2022/11/30 11:15:37;;;;;;;135.10;15.07;;;;;;;;;;6265985;22;20004;-95
2022/11/30 11:18:24;;;;;;;;;;;;;;;;;;;;;
2022/11/30 11:21:17;;;;;;;175.07;16.70;;;;;;;;;;6290793;22;20019;-96
2022/11/30 11:23:43;;;;;;;32.35;9.05;;;;;;;;;;6149441;23;20009;-94
2022/11/30 11:26:26;;;;;;;46.90;10.82;;;;;;;;;;6121766;23;20064;-96
2022/11/30 11:28:54;;;;;;;149.88;15.90;;;;;;;;;;6145077;23;20009;-93
2022/11/30 11:31:37;;;;;;;87.05;12.40;;;;;;;;;;6147361;23;20449;-94
2022/11/30 11:34:03;;;;;;;;;;;;;;;;;;6148548;23;20121;-94
2022/11/30 11:36:29;;;;;;;157.75;15.65;;;;;;;;;;6149025;23;19924;-94
2022/11/30 11:38:55;;;;;;;187.63;16.30;;;;;;;;;;6149261;23;20029;-94
2022/11/30 11:41:23;;;;;;;52.90;11.23;;;;;;;;;;6121913;23;20327;-94
2022/11/30 11:44:08;;;;;;;57.10;11.05;;;;;;;;;;6148802;23;20009;-94
2022/11/30 11:46:35;;;;;;;62.88;10.85;;;;;;;;;;6146444;23;20017;-95
2022/11/30 11:49:04;;;;;;;46.83;11.25;;;;;;;;;;6149539;23;20009;-94
2022/11/30 11:51:31;;;;;;;107.25;13.73;;;;;;;;;;6123425;23;20006;-94
2022/11/30 11:54:11;;;;;;;80.10;12.85;;;;;;;;;;6153669;23;20018;-96
2022/11/30 11:56:37;;;;;;;61.20;12.32;;;;;;;;;;6130168;23;20014;-94
2022/11/30 11:59:08;;;;;;;72.00;12.63;;;;;;;;;;6125223;23;20037;-94
2022/11/30 12:01:41;;;;;;;98.10;12.95;;;;;;;;;;6254780;22;20011;-94
2022/11/30 12:04:25;;;;;;;126.32;14.82;;;;;;;;;;6290001;22;20772;-95
2022/11/30 12:06:54;;;;;;;126.50;14.52;;;;;;;;;;6299327;22;20008;-93
2022/11/30 12:09:23;;;;;;;44.35;11.63;;;;;;;;;;6302167;22;20014;-94
2022/11/30 12:11:48;;;;;;;43.33;11.75;;;;;;;;;;6301866;22;20018;-94
2022/11/30 12:14:15;;;;;;;50.33;11.82;;;;;;;;;;6301790;22;20011;-94
2022/11/30 12:16:40;;;;;;;41.10;9.95;;;;;;;;;;6301455;22;20014;-94
2022/11/30 12:19:14;;;;;;;50.13;11.55;;;;;;;;;;6273813;22;20002;-94
2022/11/30 12:21:45;;;;;;;46.63;11.07;;;;;;;;;;6299379;22;20053;-94
2022/11/30 12:24:10;;;;;;;39.00;11.57;;;;;;;;;;6297733;22;20313;-94
2022/11/30 12:26:43;;;;;;;39.55;11.05;;;;;;;;;;6299921;22;19999;-96
2022/11/30 12:29:25;;;;;;;32.78;10.27;;;;;;;;;;6302957;22;20049;-94
2022/11/30 12:31:56;;;;;;;33.45;9.25;;;;;;;;;;6303057;22;20007;-96
2022/11/30 12:34:29;;;;;;;26.67;10.00;;;;;;;;;;6302180;22;20082;-95
2022/11/30 12:36:57;;;;;;;25.17;8.55;;;;;;;;;;6302007;22;20011;-95
2022/11/30 12:39:43;;;;;;;23.70;8.38;;;;;;;;;;6300392;22;20471;-94
2022/11/30 12:42:31;;;;;;;37.25;10.43;;;;;;;;;;6303273;22;20011;-95
2022/11/30 12:45:16;;;;;;;27.90;8.45;;;;;;;;;;6303205;22;20003;-96
2022/11/30 12:47:41;;;;;;;25.20;8.68;;;;;;;;;;6300409;22;20522;-95
2022/11/30 12:50:25;;;;;;;22.30;7.73;;;;;;;;;;6297742;22;20007;-95
2022/11/30 12:53:10;;;;;;;20.23;6.55;;;;;;;;;;6301020;22;20227;-95
2022/11/30 12:55:38;;;;;;;20.10;7.30;;;;;;;;;;6303956;22;20019;-94
2022/11/30 12:58:07;;;;;;;22.90;7.65;;;;;;;;;;6301045;22;20007;-95
2022/11/30 13:01:01;;;;;;;23.98;8.10;;;;;;;;;;6298012;22;20082;-95
2022/11/30 13:03:46;;;;;;;20.20;7.38;;;;;;;;;;6299163;22;20030;-95
2022/11/30 13:06:14;;;;;;;22.67;7.43;;;;;;;;;;6301619;22;20007;-95
2022/11/30 13:08:40;;;;;;;20.02;7.40;;;;;;;;;;6301896;22;20007;-95
2022/11/30 13:11:09;;;;;;;23.98;8.25;;;;;;;;;;6300845;22;20094;-95
2022/11/30 13:13:41;;;;;;;24.67;8.05;;;;;;;;;;6300510;22;20011;-96
2022/11/30 13:16:07;;;;;;;25.60;7.82;;;;;;;;;;6298876;22;20012;-94
2022/11/30 13:18:33;;;;;;;23.75;7.97;;;;;;;;;;6300062;22;20006;-96
2022/11/30 13:21:14;;;;;;;22.63;7.85;;;;;;;;;;6300915;22;20006;-96
2022/11/30 13:23:46;;;;;;;22.13;8.18;;;;;;;;;;6300635;22;20498;-96
2022/11/30 13:26:18;;;;;;;21.92;8.55;;;;;;;;;;6299595;22;20000;-94
2022/11/30 13:28:56;;;;;;;25.40;9.25;;;;;;;;;;6299986;22;20008;-93
2022/11/30 13:31:47;;;;;;;24.20;9.15;;;;;;;;;;6300765;22;20106;-94
2022/11/30 13:34:29;;;;;;;25.80;9.07;;;;;;;;;;6269508;22;20010;-95
2022/11/30 13:37:03;;;;;;;29.55;9.43;;;;;;;;;;6300226;22;20003;-96
2022/11/30 13:39:30;;;;;;;30.50;11.18;;;;;;;;;;6301445;22;20091;-96
2022/11/30 13:42:06;;;;;;;30.52;10.77;;;;;;;;;;6301858;22;20094;-96
2022/11/30 13:44:31;;;;;;;31.38;10.70;;;;;;;;;;6300552;22;20055;-96
2022/11/30 13:46:58;;;;;;;31.05;11.52;;;;;;;;;;6300106;22;20026;-96
2022/11/30 13:49:32;;;;;;;28.35;10.65;;;;;;;;;;6300115;22;20017;-96
2022/11/30 13:52:01;;;;;;;32.30;10.55;;;;;;;;;;6300286;22;20030;-94
2022/11/30 13:54:36;;;;;;;29.90;10.90;;;;;;;;;;6300224;22;20031;-94
2022/11/30 13:57:02;;;;;;;34.40;12.98;;;;;;;;;;6302334;22;19999;-94
2022/11/30 13:59:46;;;;;;;27.67;11.07;;;;;;;;;;6301474;22;20003;-94
2022/11/30 14:02:35;;;;;;;32.05;11.75;;;;;;;;;;6299928;22;20015;-94
2022/11/30 14:05:15;;;;;;;32.90;11.50;;;;;;;;;;6301041;22;20400;-95
2022/11/30 14:07:59;;;;;;;37.88;12.25;;;;;;;;;;6301022;22;20007;-94
2022/11/30 14:10:26;;;;;;;32.67;12.02;;;;;;;;;;6303221;22;19999;-96
2022/11/30 14:13:09;;;;;;;29.52;10.90;;;;;;;;;;6274837;22;20045;-96
2022/11/30 14:15:35;;;;;;;;;;;;;;;;;;6274835;22;20010;-94
2022/11/30 14:18:18;;;;;;;30.10;10.70;;;;;;;;;;6276572;22;19981;-96
2022/11/30 14:20:43;;;;;;;28.23;10.55;;;;;;;;;;6276420;22;20045;-96
2022/11/30 14:23:18;;;;;;;27.55;11.07;;;;;;;;;;6276200;22;20003;-94
2022/11/30 14:25:46;;;;;;;34.58;12.45;;;;;;;;;;6288076;22;20057;-94
2022/11/30 14:28:17;;;;;;;35.10;11.57;;;;;;;;;;6306231;22;20012;-94
2022/11/30 14:30:46;;;;;;;29.65;10.90;;;;;;;;;;6304920;22;20007;-94
2022/11/30 14:33:14;;;;;;;26.33;9.52;;;;;;;;;;6302394;22;20015;-94
2022/11/30 14:35:41;;;;;;;34.05;10.80;;;;;;;;;;6302366;22;20093;-94
2022/11/30 14:38:26;;;;;;;33.42;10.85;;;;;;;;;;6302575;22;20049;-96